Time;durP1;ratioP1;P1;durP2;ratioP2;P2;SDS_P1;SDS_P2;PMS_P1;PMS_P2;Temp;Humidity;BMP_temperature;BMP_pressure;BME280_temperature;BME280_humidity;BME280_pressure;Samples;Min_cycle;Max_cycle;Signal;HPM_P1;HPM_P2
2021/11/11 00:00:58;;;;;;;26.07;16.80;;;9.00;99.90;;;;;;5093053;28;20205;-67
2021/11/11 00:03:25;;;;;;;25.30;16.80;;;9.00;99.90;;;;;;5092647;28;20210;-67
2021/11/11 00:05:53;;;;;;;25.57;16.77;;;8.90;99.90;;;;;;5092905;28;20259;-67
2021/11/11 00:08:20;;;;;;;31.27;15.60;;;8.90;99.90;;;;;;5092526;28;20210;-66
2021/11/11 00:10:47;;;;;;;22.73;15.07;;;9.00;99.90;;;;;;5092563;28;20255;-66
2021/11/11 00:13:19;;;;;;;23.37;15.70;;;9.00;99.90;;;;;;5092422;28;20660;-66
2021/11/11 00:15:47;;;;;;;22.37;15.03;;;9.00;99.90;;;;;;5092554;28;20738;-66
2021/11/11 00:18:15;;;;;;;24.67;13.57;;;9.00;99.90;;;;;;5092062;28;20225;-66
2021/11/11 00:20:42;;;;;;;25.53;15.30;;;9.10;99.90;;;;;;5092538;28;20753;-66
2021/11/11 00:23:09;;;;;;;24.87;14.77;;;9.10;99.90;;;;;;5078689;28;20676;-66
2021/11/11 00:25:37;;;;;;;21.67;14.67;;;9.00;99.90;;;;;;5092797;28;20213;-66
2021/11/11 00:28:05;;;;;;;22.30;14.77;;;9.00;99.90;;;;;;5092210;28;20623;-66
2021/11/11 00:30:32;;;;;;;29.67;17.43;;;8.90;99.90;;;;;;5092360;28;20239;-66
2021/11/11 00:33:00;;;;;;;24.07;17.30;;;9.00;99.90;;;;;;5092200;28;20206;-67
2021/11/11 00:35:29;;;;;;;23.60;17.40;;;9.00;99.90;;;;;;5092018;28;20688;-66
2021/11/11 00:37:58;;;;;;;23.33;15.00;;;8.90;99.90;;;;;;5091877;28;20213;-68
2021/11/11 00:40:27;;;;;;;30.23;17.20;;;9.00;99.90;;;;;;5091960;28;20742;-68
2021/11/11 00:42:54;;;;;;;28.10;15.57;;;9.00;99.90;;;;;;5092325;28;20259;-67
2021/11/11 00:45:21;;;;;;;25.60;17.20;;;8.90;99.90;;;;;;5091836;28;20247;-68
2021/11/11 00:47:50;;;;;;;22.53;15.90;;;8.90;99.90;;;;;;5092154;28;20205;-68
2021/11/11 00:50:22;;;;;;;24.17;17.23;;;9.00;99.90;;;;;;5091710;28;20210;-68
2021/11/11 00:52:49;;;;;;;24.87;16.73;;;9.00;99.90;;;;;;5092027;28;20292;-68
2021/11/11 00:55:17;;;;;;;25.63;17.60;;;9.10;99.90;;;;;;5091514;28;20262;-67
2021/11/11 00:57:44;;;;;;;23.60;15.93;;;9.10;99.90;;;;;;5091937;28;20242;-67
2021/11/11 01:00:14;;;;;;;31.43;18.60;;;9.10;99.90;;;;;;5091368;28;20241;-68
2021/11/11 01:02:44;;;;;;;27.97;16.57;;;9.10;99.90;;;;;;5091796;28;20205;-68
2021/11/11 01:05:11;;;;;;;29.33;18.80;;;9.10;99.90;;;;;;5091115;28;20213;-68
2021/11/11 01:07:40;;;;;;;30.47;19.13;;;9.10;99.90;;;;;;5091965;28;20201;-68
2021/11/11 01:10:08;;;;;;;37.00;18.00;;;9.10;99.90;;;;;;5091745;28;20685;-68
2021/11/11 01:12:35;;;;;;;26.23;17.50;;;9.10;99.90;;;;;;5091975;28;20197;-68
2021/11/11 01:15:04;;;;;;;24.97;17.93;;;9.10;99.90;;;;;;5091854;28;20205;-67
2021/11/11 01:17:31;;;;;;;24.73;16.60;;;8.90;99.90;;;;;;5090644;28;20738;-68
2021/11/11 01:19:58;;;;;;;25.97;16.87;;;8.90;1.00;;;;;;5091416;28;20781;-68
2021/11/11 01:22:25;;;;;;;28.47;18.93;;;8.90;1.00;;;;;;5091154;28;20201;-67
2021/11/11 01:24:54;;;;;;;27.10;17.60;;;9.00;1.00;;;;;;5091535;28;20227;-67
2021/11/11 01:27:21;;;;;;;34.97;19.90;;;8.90;1.00;;;;;;5091280;28;20270;-68
2021/11/11 01:29:48;;;;;;;32.17;18.77;;;8.90;1.00;;;;;;5090936;28;20635;-66
2021/11/11 01:32:15;;;;;;;32.80;18.23;;;8.90;1.00;;;;;;5090584;28;20205;-67
2021/11/11 01:34:42;;;;;;;28.00;18.00;;;9.00;1.00;;;;;;5090941;28;20205;-68
2021/11/11 01:37:09;;;;;;;28.90;18.70;;;9.00;1.00;;;;;;5091656;28;20201;-67
2021/11/11 01:39:36;;;;;;;35.70;19.63;;;8.90;1.00;;;;;;5091235;28;20232;-68
2021/11/11 01:42:05;;;;;;;31.83;18.80;;;8.90;1.00;;;;;;5091052;28;20669;-68
2021/11/11 01:44:32;;;;;;;26.30;18.07;;;8.90;1.00;;;;;;5090430;28;20247;-67
2021/11/11 01:46:59;;;;;;;33.37;18.80;;;8.90;1.00;;;;;;5091124;28;20254;-67
2021/11/11 01:49:27;;;;;;;30.97;19.17;;;9.00;1.00;;;;;;5090940;28;20213;-68
2021/11/11 01:51:54;;;;;;;31.10;19.87;;;9.00;1.00;;;;;;5090969;28;20201;-66
2021/11/11 01:54:21;;;;;;;28.67;18.87;;;9.00;1.00;;;;;;5090648;28;20255;-66
2021/11/11 01:56:49;;;;;;;30.73;19.60;;;9.10;1.00;;;;;;5090092;28;20664;-69
2021/11/11 01:59:17;;;;;;;31.07;21.77;;;9.10;1.00;;;;;;5090190;28;20704;-67
2021/11/11 02:01:44;;;;;;;30.00;18.87;;;9.00;1.00;;;;;;5090672;28;20205;-69
2021/11/11 02:04:11;;;;;;;30.00;18.83;;;9.00;1.00;;;;;;5090441;28;20730;-67
2021/11/11 02:06:38;;;;;;;33.47;20.13;;;9.00;1.00;;;;;;5091333;28;20213;-66
2021/11/11 02:09:07;;;;;;;30.43;19.33;;;9.00;1.00;;;;;;5090689;28;20217;-67
2021/11/11 02:11:34;;;;;;;29.63;19.33;;;9.10;1.00;;;;;;5090434;28;20201;-67
2021/11/11 02:14:01;;;;;;;27.30;19.57;;;9.10;1.00;;;;;;5090399;28;20247;-67
2021/11/11 02:16:29;;;;;;;40.70;21.13;;;9.10;1.00;;;;;;5090422;28;20209;-66
2021/11/11 02:18:56;;;;;;;32.07;19.70;;;9.10;1.00;;;;;;5090834;28;20274;-68
2021/11/11 02:21:25;;;;;;;30.13;18.13;;;9.10;1.00;;;;;;5089896;28;20247;-67
2021/11/11 02:23:53;;;;;;;26.53;17.90;;;9.00;1.00;;;;;;5090838;28;20201;-67
2021/11/11 02:26:20;;;;;;;27.47;20.10;;;9.00;1.00;;;;;;5090124;28;20201;-67
2021/11/11 02:28:47;;;;;;;29.80;19.17;;;9.10;1.00;;;;;;5090319;28;20215;-66
2021/11/11 02:31:14;;;;;;;28.17;19.87;;;9.10;1.00;;;;;;5089935;28;20573;-66
2021/11/11 02:33:41;;;;;;;32.67;19.37;;;9.10;1.00;;;;;;5090488;28;20213;-67
2021/11/11 02:36:09;;;;;;;27.93;20.63;;;9.10;1.00;;;;;;5090830;28;20209;-66
2021/11/11 02:38:37;;;;;;;34.23;20.07;;;9.10;1.00;;;;;;5090848;28;20202;-66
2021/11/11 02:41:04;;;;;;;31.47;17.90;;;9.10;1.00;;;;;;5090358;28;20254;-66
2021/11/11 02:43:31;;;;;;;29.67;17.90;;;9.10;1.00;;;;;;5089707;28;20254;-67
2021/11/11 02:45:58;;;;;;;28.50;19.67;;;9.10;1.00;;;;;;5090621;28;20217;-67
2021/11/11 02:48:26;;;;;;;32.27;20.60;;;9.10;1.00;;;;;;5089951;28;20197;-67
2021/11/11 02:50:54;;;;;;;32.80;18.77;;;9.10;1.00;;;;;;5090433;28;20205;-67
2021/11/11 02:53:22;;;;;;;26.73;18.60;;;9.10;1.00;;;;;;5089602;28;20209;-66
2021/11/11 02:55:51;;;;;;;27.13;18.87;;;9.10;1.00;;;;;;5090590;28;20205;-67
2021/11/11 02:58:19;;;;;;;29.03;19.27;;;9.10;1.00;;;;;;5089707;28;20209;-66
2021/11/11 03:00:50;;;;;;;27.23;17.03;;;9.10;1.00;;;;;;5090121;28;20233;-67
2021/11/11 03:03:18;;;;;;;23.23;14.53;;;9.20;1.00;;;;;;5089879;28;20288;-67
2021/11/11 03:05:45;;;;;;;22.13;14.70;;;9.10;1.00;;;;;;5090129;28;20563;-67
2021/11/11 03:08:12;;;;;;;22.50;15.20;;;9.10;1.00;;;;;;5091184;28;20353;-67
2021/11/11 03:10:41;;;;;;;22.20;14.60;;;9.00;1.00;;;;;;5094049;28;20210;-66
2021/11/11 03:13:11;;;;;;;20.67;13.20;;;9.00;1.00;;;;;;5094055;28;20205;-67
2021/11/11 03:15:39;;;;;;;20.93;14.10;;;8.90;1.00;;;;;;5094235;28;20209;-66
2021/11/11 03:18:06;;;;;;;23.03;13.30;;;8.90;1.00;;;;;;5094415;28;20205;-66
2021/11/11 03:20:33;;;;;;;21.47;13.57;;;8.80;1.00;;;;;;5093169;28;20769;-66
2021/11/11 03:23:01;;;;;;;17.87;12.93;;;8.80;1.00;;;;;;5093554;28;20208;-66
2021/11/11 03:25:30;;;;;;;22.43;13.17;;;8.90;1.00;;;;;;5093789;28;20274;-66
2021/11/11 03:27:58;;;;;;;21.30;12.00;;;8.90;1.00;;;;;;5093462;28;20250;-67
2021/11/11 03:30:28;;;;;;;23.47;12.40;;;8.90;1.00;;;;;;5093458;28;20213;-66
2021/11/11 03:32:56;;;;;;;17.43;12.30;;;8.80;1.00;;;;;;5093548;28;20206;-66
2021/11/11 03:35:24;;;;;;;14.17;10.67;;;8.90;1.00;;;;;;5093329;28;20684;-67
2021/11/11 03:37:53;;;;;;;19.13;12.47;;;8.80;1.00;;;;;;5093402;28;20749;-66
2021/11/11 03:40:23;;;;;;;16.17;11.27;;;8.80;1.00;;;;;;5093312;28;20225;-67
2021/11/11 03:42:50;;;;;;;16.40;11.10;;;8.80;1.00;;;;;;5093394;28;20205;-67
2021/11/11 03:45:19;;;;;;;14.73;10.50;;;8.80;1.00;;;;;;5093034;28;20197;-67
2021/11/11 03:47:49;;;;;;;17.27;11.40;;;8.80;1.00;;;;;;5093386;28;20217;-67
2021/11/11 03:50:18;;;;;;;14.53;10.60;;;8.70;1.00;;;;;;5092750;28;20256;-67
2021/11/11 03:52:45;;;;;;;14.00;11.33;;;8.60;1.00;;;;;;5093382;28;20734;-66
2021/11/11 03:55:14;;;;;;;15.40;11.00;;;8.70;1.00;;;;;;5064220;28;20202;-66
2021/11/11 03:57:41;;;;;;;19.27;14.07;;;8.70;1.00;;;;;;5072675;28;20202;-66
2021/11/11 04:00:13;;;;;;;16.20;10.80;;;8.70;1.00;;;;;;5073000;28;20238;-66
2021/11/11 04:02:41;;;;;;;19.43;12.73;;;8.60;1.00;;;;;;5072657;28;20670;-66
2021/11/11 04:05:10;;;;;;;20.83;11.23;;;8.70;1.00;;;;;;5073069;28;20214;-66
2021/11/11 04:07:37;;;;;;;19.13;11.27;;;8.70;1.00;;;;;;5072636;28;20206;-66
2021/11/11 04:10:05;;;;;;;20.20;12.97;;;8.80;1.00;;;;;;5072965;28;20264;-66
2021/11/11 04:12:32;;;;;;;20.67;13.03;;;8.80;1.00;;;;;;5071710;28;20213;-66
2021/11/11 04:14:59;;;;;;;16.97;12.07;;;8.80;1.00;;;;;;5072833;28;20214;-66
2021/11/11 04:17:26;;;;;;;17.07;12.17;;;8.80;1.00;;;;;;5071932;28;20206;-66
2021/11/11 04:19:53;;;;;;;14.40;9.77;;;8.60;1.00;;;;;;5072272;28;20238;-66
2021/11/11 04:22:21;;;;;;;14.07;11.07;;;8.60;1.00;;;;;;5072317;28;20207;-66
2021/11/11 04:24:49;;;;;;;14.63;10.97;;;8.60;1.00;;;;;;5071903;28;20362;-66
2021/11/11 04:27:21;;;;;;;15.60;10.63;;;8.60;1.00;;;;;;5071721;28;20669;-65
2021/11/11 04:29:57;;;;;;;18.90;12.83;;;8.70;1.00;;;;;;5071864;28;20743;-66
2021/11/11 04:32:24;;;;;;;16.40;11.53;;;8.80;1.00;;;;;;5072034;28;20233;-67
2021/11/11 04:34:56;;;;;;;19.67;12.33;;;8.90;1.00;;;;;;5071927;28;20202;-67
2021/11/11 04:37:30;;;;;;;19.13;12.03;;;8.80;1.00;;;;;;5071803;28;20292;-67
2021/11/11 04:40:21;;;;;;;16.63;11.60;;;8.80;1.00;;;;;;5071510;28;20218;-67
2021/11/11 04:49:01;;;;;;;19.40;11.53;;;9.00;1.00;;;;;;5071368;28;20205;-68
2021/11/11 05:05:20;;;;;;;22.00;14.57;;;9.00;1.00;;;;;;5070919;28;20240;-67
2021/11/11 05:07:48;;;;;;;21.13;13.90;;;8.90;1.00;;;;;;5071477;28;20733;-67
2021/11/11 05:10:17;;;;;;;25.10;13.80;;;8.90;1.00;;;;;;5070879;28;20234;-67
2021/11/11 05:12:44;;;;;;;21.13;12.87;;;9.00;1.00;;;;;;5071655;28;20289;-67
2021/11/11 05:15:12;;;;;;;22.80;14.50;;;9.00;1.00;;;;;;5070874;28;20206;-67
2021/11/11 05:17:41;;;;;;;19.93;13.43;;;9.00;1.00;;;;;;5071660;28;20210;-66
2021/11/11 05:20:10;;;;;;;19.13;12.97;;;9.00;1.00;;;;;;5071808;28;20261;-66
2021/11/11 05:22:37;;;;;;;22.00;13.90;;;9.00;1.00;;;;;;5071387;28;20214;-68
2021/11/11 05:25:04;;;;;;;22.53;13.47;;;9.00;1.00;;;;;;5071242;28;20255;-68
2021/11/11 05:27:34;;;;;;;19.33;13.33;;;8.90;1.00;;;;;;5070560;28;20206;-67
2021/11/11 05:30:03;;;;;;;19.37;12.83;;;8.90;1.00;;;;;;5070894;28;20232;-67
2021/11/11 05:32:30;;;;;;;21.20;14.27;;;8.80;1.00;;;;;;5070565;28;20272;-68
2021/11/11 05:34:57;;;;;;;20.03;12.70;;;8.90;1.00;;;;;;5071235;28;20206;-67
2021/11/11 05:37:24;;;;;;;16.93;13.40;;;8.90;1.00;;;;;;5070658;28;20210;-68
2021/11/11 05:39:51;;;;;;;17.50;11.87;;;8.90;1.00;;;;;;5070758;28;20279;-67
2021/11/11 05:42:18;;;;;;;19.63;12.93;;;8.90;1.00;;;;;;5070707;28;20267;-67
2021/11/11 05:44:47;;;;;;;18.33;11.53;;;8.80;1.00;;;;;;5070859;28;20210;-67
2021/11/11 05:47:14;;;;;;;15.13;11.50;;;8.90;1.00;;;;;;5070979;28;20206;-67
2021/11/11 05:49:41;;;;;;;17.77;13.17;;;8.90;1.00;;;;;;5070701;28;20214;-67
2021/11/11 05:52:09;;;;;;;18.70;12.00;;;9.00;1.00;;;;;;5071083;28;20248;-67
2021/11/11 05:54:38;;;;;;;17.03;12.77;;;9.00;1.00;;;;;;5071063;28;20612;-67
2021/11/11 05:57:06;;;;;;;16.47;12.53;;;9.10;1.00;;;;;;5070634;28;20212;-67
2021/11/11 05:59:33;;;;;;;21.37;12.07;;;9.00;1.00;;;;;;5070592;28;20202;-67
2021/11/11 06:02:02;;;;;;;18.17;11.87;;;9.00;1.00;;;;;;5070439;28;20275;-67
2021/11/11 06:04:31;;;;;;;14.47;11.70;;;9.00;1.00;;;;;;5068833;28;20212;-67
2021/11/11 06:06:58;;;;;;;18.93;12.20;;;9.00;1.00;;;;;;5058626;28;20209;-66
2021/11/11 06:09:25;;;;;;;18.40;12.97;;;9.00;1.00;;;;;;5069989;28;20270;-67
2021/11/11 06:11:52;;;;;;;18.83;12.47;;;9.00;1.00;;;;;;5064788;28;20689;-67
2021/11/11 06:14:19;;;;;;;16.80;12.60;;;9.00;1.00;;;;;;5069813;28;20259;-67
2021/11/11 06:16:46;;;;;;;18.17;13.80;;;9.00;1.00;;;;;;5070614;28;20206;-67
2021/11/11 06:19:14;;;;;;;18.00;12.87;;;9.00;1.00;;;;;;5069731;28;20696;-67
2021/11/11 06:21:42;;;;;;;16.47;14.13;;;8.90;1.00;;;;;;5070183;28;20233;-67
2021/11/11 06:24:09;;;;;;;15.93;12.20;;;8.90;1.00;;;;;;5069021;28;20198;-66
2021/11/11 06:26:37;;;;;;;18.83;13.43;;;8.90;1.00;;;;;;5070918;28;20210;-66
2021/11/11 06:29:04;;;;;;;15.80;13.20;;;8.90;1.00;;;;;;5070193;28;20206;-67
2021/11/11 06:31:31;;;;;;;15.93;12.43;;;8.90;1.00;;;;;;5069980;28;20206;-67
2021/11/11 06:33:58;;;;;;;19.40;13.93;;;8.90;1.00;;;;;;5070078;28;20206;-67
2021/11/11 06:36:27;;;;;;;20.47;13.27;;;9.00;1.00;;;;;;5069369;28;20260;-66
2021/11/11 06:38:54;;;;;;;16.60;12.40;;;9.00;1.00;;;;;;5070295;28;20248;-67
2021/11/11 06:41:21;;;;;;;20.40;13.67;;;9.10;1.00;;;;;;5069835;28;20279;-66
2021/11/11 06:43:48;;;;;;;16.80;13.73;;;9.00;1.00;;;;;;5074064;28;20727;-66
2021/11/11 06:46:15;;;;;;;20.03;14.00;;;9.10;1.00;;;;;;5073784;28;20206;-66
2021/11/11 06:48:43;;;;;;;18.33;13.23;;;9.10;1.00;;;;;;5074264;28;20209;-66
2021/11/11 06:51:10;;;;;;;18.20;13.97;;;9.00;1.00;;;;;;5074186;28;20309;-67
2021/11/11 06:53:38;;;;;;;17.67;14.27;;;9.00;1.00;;;;;;5074286;28;20210;-67
2021/11/11 06:56:05;;;;;;;18.50;14.10;;;9.00;1.00;;;;;;5074488;28;20578;-67
2021/11/11 06:58:32;;;;;;;18.27;12.30;;;9.00;1.00;;;;;;5070816;28;20677;-67
2021/11/11 07:01:01;;;;;;;16.80;13.43;;;8.90;1.00;;;;;;5073655;28;20732;-68
2021/11/11 07:03:29;;;;;;;21.53;13.30;;;9.00;1.00;;;;;;5073246;28;20208;-68
2021/11/11 07:05:56;;;;;;;19.33;14.07;;;9.10;1.00;;;;;;5073725;28;20667;-67
2021/11/11 07:08:23;;;;;;;24.57;13.60;;;9.10;1.00;;;;;;5070676;28;20597;-67
2021/11/11 07:10:54;;;;;;;18.77;12.90;;;9.00;1.00;;;;;;5062307;28;20252;-67
2021/11/11 07:13:22;;;;;;;16.17;11.83;;;9.00;1.00;;;;;;5066859;28;20262;-67
2021/11/11 07:15:49;;;;;;;18.13;12.57;;;9.10;1.00;;;;;;5065043;28;20206;-67
2021/11/11 07:18:17;;;;;;;20.90;13.27;;;9.00;1.00;;;;;;5063932;28;20642;-68
2021/11/11 07:20:46;;;;;;;17.77;13.23;;;9.00;1.00;;;;;;5072399;28;20306;-68
2021/11/11 07:23:14;;;;;;;19.17;14.27;;;9.00;1.00;;;;;;5067925;28;20249;-67
2021/11/11 07:25:41;;;;;;;20.93;13.13;;;9.10;1.00;;;;;;5072286;28;20214;-67
2021/11/11 07:28:10;;;;;;;21.20;15.10;;;9.00;1.00;;;;;;5064789;28;20202;-67
2021/11/11 07:30:37;;;;;;;28.63;15.80;;;9.00;1.00;;;;;;5073590;28;20218;-68
2021/11/11 07:33:04;;;;;;;26.27;17.33;;;9.00;1.00;;;;;;5061305;28;20248;-67
2021/11/11 07:35:32;;;;;;;31.13;18.00;;;9.10;1.00;;;;;;5072778;28;20632;-67
2021/11/11 07:38:00;;;;;;;30.83;19.10;;;9.10;99.90;;;;;;5072764;28;20202;-67
2021/11/11 07:40:27;;;;;;;32.03;21.70;;;9.20;99.90;;;;;;5072944;28;20287;-67
2021/11/11 07:42:55;;;;;;;34.03;19.87;;;9.20;99.90;;;;;;5068515;28;20210;-68
2021/11/11 07:45:28;;;;;;;34.90;20.97;;;9.10;99.90;;;;;;5071646;28;20214;-68
2021/11/11 07:47:57;;;;;;;35.47;21.03;;;9.20;99.90;;;;;;5063746;28;20290;-68
2021/11/11 07:50:25;;;;;;;40.60;26.37;;;9.10;99.90;;;;;;5063052;28;20203;-68
2021/11/11 07:52:52;;;;;;;45.70;29.73;;;9.10;99.90;;;;;;5072565;28;20210;-68
2021/11/11 07:55:20;;;;;;;37.03;23.60;;;9.20;99.90;;;;;;5067757;28;20226;-68
2021/11/11 07:57:47;;;;;;;46.20;28.27;;;9.10;1.00;;;;;;5072995;28;20210;-67
2021/11/11 08:00:16;;;;;;;45.10;28.63;;;9.30;99.90;;;;;;5067916;28;20206;-68
2021/11/11 08:02:44;;;;;;;41.13;23.77;;;9.70;99.90;;;;;;5068061;28;20289;-68
2021/11/11 08:05:13;;;;;;;36.77;22.20;;;9.90;99.90;;;;;;5067582;28;20210;-68
2021/11/11 08:07:42;;;;;;;35.97;26.23;;;10.00;99.90;;;;;;5059994;28;20217;-68
2021/11/11 08:10:10;;;;;;;24.20;16.60;;;10.20;99.90;;;;;;5072814;28;20202;-68
2021/11/11 08:12:37;;;;;;;26.53;15.57;;;10.20;99.90;;;;;;5064731;28;20211;-67
2021/11/11 08:15:04;;;;;;;24.83;17.67;;;10.20;99.90;;;;;;5061479;28;20269;-67
2021/11/11 08:17:31;;;;;;;23.03;15.87;;;10.30;99.90;;;;;;5063557;28;20202;-67
2021/11/11 08:19:59;;;;;;;24.03;15.77;;;10.60;99.90;;;;;;5056399;28;20202;-67
2021/11/11 08:22:28;;;;;;;24.67;15.47;;;10.80;99.90;;;;;;5069329;28;20229;-68
2021/11/11 08:24:56;;;;;;;27.17;15.07;;;10.50;99.90;;;;;;5072549;28;20210;-67
2021/11/11 08:27:24;;;;;;;25.17;16.00;;;10.40;99.90;;;;;;5071795;28;20620;-67
2021/11/11 08:29:51;;;;;;;26.90;17.10;;;10.20;99.90;;;;;;5070487;28;20263;-67
2021/11/11 08:32:19;;;;;;;27.90;15.33;;;10.00;99.90;;;;;;5065908;28;20214;-67
2021/11/11 08:34:48;;;;;;;24.80;15.33;;;9.90;99.90;;;;;;5070175;28;20206;-67
2021/11/11 08:37:17;;;;;;;27.80;18.10;;;10.00;99.90;;;;;;5064279;28;20214;-68
2021/11/11 08:39:44;;;;;;;25.90;15.30;;;10.00;99.90;;;;;;5070445;28;20210;-67
2021/11/11 08:42:12;;;;;;;21.17;15.17;;;10.00;99.90;;;;;;5071704;28;20229;-67
2021/11/11 08:44:42;;;;;;;23.70;16.87;;;9.80;99.90;;;;;;5071922;28;20211;-67
2021/11/11 08:47:10;;;;;;;25.70;16.33;;;9.80;99.90;;;;;;5071959;28;20339;-67
2021/11/11 08:49:37;;;;;;;29.43;19.20;;;9.90;99.90;;;;;;5072099;28;20289;-68
2021/11/11 08:52:05;;;;;;;23.60;16.37;;;10.00;99.90;;;;;;5071715;28;20202;-68
2021/11/11 08:54:33;;;;;;;24.27;16.27;;;10.10;99.90;;;;;;5071396;28;20206;-67
2021/11/11 08:57:00;;;;;;;22.87;15.60;;;10.20;99.90;;;;;;5064730;28;20674;-67
2021/11/11 08:59:28;;;;;;;26.57;16.40;;;10.10;99.90;;;;;;5060015;28;20283;-67
2021/11/11 09:01:55;;;;;;;24.40;16.00;;;10.10;99.90;;;;;;5064742;28;20693;-67
2021/11/11 09:04:23;;;;;;;22.13;16.33;;;10.50;99.90;;;;;;5063464;28;20206;-67
2021/11/11 09:06:52;;;;;;;22.73;15.23;;;10.90;99.90;;;;;;5060187;28;20207;-67
2021/11/11 09:09:21;;;;;;;24.70;15.90;;;11.00;99.90;;;;;;5070485;28;20447;-67
2021/11/11 09:11:50;;;;;;;25.87;16.53;;;10.70;99.90;;;;;;5071592;28;20206;-67
2021/11/11 09:14:18;;;;;;;26.83;18.53;;;10.40;99.90;;;;;;5068092;28;20202;-67
2021/11/11 09:16:45;;;;;;;33.83;20.60;;;10.30;99.90;;;;;;5069897;28;20731;-67
2021/11/11 09:19:13;;;;;;;38.20;22.90;;;10.30;99.90;;;;;;5067237;28;20198;-66
2021/11/11 09:21:41;;;;;;;196.03;78.30;;;10.50;99.90;;;;;;5059986;28;20730;-68
2021/11/11 09:24:09;;;;;;;60.97;29.63;;;10.10;99.90;;;;;;5067841;28;20199;-67
2021/11/11 09:26:37;;;;;;;25.20;17.97;;;9.90;99.90;;;;;;5071233;28;20682;-68
2021/11/11 09:29:06;;;;;;;56.50;28.53;;;10.00;99.90;;;;;;5070167;28;20267;-67
2021/11/11 09:31:35;;;;;;;68.20;31.07;;;10.00;99.90;;;;;;5051401;28;20214;-67
2021/11/11 09:34:02;;;;;;;140.50;58.33;;;10.10;99.90;;;;;;5064831;28;20332;-67
2021/11/11 09:36:29;;;;;;;34.70;22.13;;;10.00;99.90;;;;;;5058362;28;20249;-67
2021/11/11 09:38:56;;;;;;;36.53;23.23;;;9.70;99.90;;;;;;5070927;28;20202;-67
2021/11/11 09:41:24;;;;;;;29.13;20.57;;;9.90;99.90;;;;;;5064650;28;20222;-67
2021/11/11 09:43:51;;;;;;;28.93;19.70;;;10.20;99.90;;;;;;5069513;28;20562;-67
2021/11/11 09:46:20;;;;;;;29.83;20.23;;;10.30;99.90;;;;;;5070055;28;20643;-67
2021/11/11 09:48:48;;;;;;;31.77;21.57;;;10.60;99.90;;;;;;5070595;28;20289;-67
2021/11/11 09:51:18;;;;;;;30.77;20.07;;;10.80;99.90;;;;;;5062618;28;20280;-67
2021/11/11 09:53:56;;;;;;;30.13;21.43;;;10.40;99.90;;;;;;5070671;28;20217;-67
2021/11/11 09:59:07;;;;;;;33.50;22.47;;;10.40;99.90;;;;;;5070638;28;20205;-69
2021/11/11 10:01:36;;;;;;;32.77;21.67;;;10.70;99.90;;;;;;5066183;28;20238;-71
2021/11/11 10:04:03;;;;;;;32.63;22.53;;;10.70;99.90;;;;;;5053453;28;20233;-68
2021/11/11 10:06:31;;;;;;;30.90;20.57;;;11.00;99.90;;;;;;5061950;28;20267;-68
2021/11/11 10:09:00;;;;;;;32.60;22.37;;;10.90;99.90;;;;;;5067079;28;20214;-68
2021/11/11 10:11:32;;;;;;;30.73;21.77;;;10.80;99.90;;;;;;5064592;28;20722;-68
2021/11/11 10:14:02;;;;;;;28.03;19.90;;;10.80;99.90;;;;;;5068542;28;20210;-68
2021/11/11 10:16:29;;;;;;;28.77;19.00;;;10.80;99.90;;;;;;5069468;28;20745;-68
2021/11/11 10:18:59;;;;;;;25.97;18.13;;;10.70;99.90;;;;;;5070110;28;20210;-68
2021/11/11 10:21:41;;;;;;;27.80;20.23;;;10.70;99.90;;;;;;5063735;28;20277;-68
2021/11/11 10:24:22;;;;;;;27.77;20.63;;;10.60;99.90;;;;;;5056571;28;20209;-67
2021/11/11 10:26:53;;;;;;;29.17;19.10;;;10.70;99.90;;;;;;5055383;28;20758;-68
2021/11/11 10:29:22;;;;;;;28.17;19.83;;;10.80;99.90;;;;;;5067358;28;20724;-68
2021/11/11 10:31:54;;;;;;;30.80;20.53;;;10.90;99.90;;;;;;5062679;28;20213;-68
2021/11/11 10:34:22;;;;;;;29.93;21.23;;;10.90;99.90;;;;;;5066582;28;20693;-68
2021/11/11 10:36:53;;;;;;;28.10;19.57;;;11.30;99.90;;;;;;5059824;28;20750;-68
2021/11/11 10:39:24;;;;;;;30.07;20.97;;;12.00;99.90;;;;;;5066552;28;20203;-68
2021/11/11 10:41:52;;;;;;;30.77;20.27;;;12.00;99.90;;;;;;5064920;28;20229;-68
2021/11/11 10:44:25;;;;;;;23.20;16.93;;;12.00;99.90;;;;;;5062237;28;20210;-68
2021/11/11 10:46:56;;;;;;;23.63;17.55;;;12.00;99.90;;;;;;5067004;28;20666;-68
2021/11/11 10:49:29;;;;;;;24.65;18.30;;;12.10;99.90;;;;;;5065774;28;20206;-67
2021/11/11 10:52:17;;;;;;;25.85;17.52;;;11.60;99.90;;;;;;5070133;28;20232;-68
2021/11/11 10:55:01;;;;;;;23.83;19.10;;;11.40;99.90;;;;;;5069801;28;20275;-68
2021/11/11 10:57:41;;;;;;;26.10;18.33;;;11.30;99.90;;;;;;5061034;28;20619;-68
2021/11/11 11:00:18;;;;;;;27.33;18.97;;;11.70;99.90;;;;;;5070246;28;20209;-68
2021/11/11 11:03:01;;;;;;;26.83;21.03;;;12.00;99.90;;;;;;5069974;28;20291;-69
2021/11/11 11:05:33;;;;;;;23.50;17.08;;;11.90;99.90;;;;;;5063526;28;20209;-68
2021/11/11 11:08:03;;;;;;;28.30;18.87;;;11.80;99.90;;;;;;5062425;28;20222;-68
2021/11/11 11:10:32;;;;;;;58.30;29.40;;;11.90;99.90;;;;;;5060409;28;20210;-68
2021/11/11 11:13:05;;;;;;;47.57;27.97;;;11.80;99.90;;;;;;5069529;28;20206;-68
2021/11/11 11:15:38;;;;;;;31.25;20.90;;;12.00;99.90;;;;;;5064640;28;20207;-68
2021/11/11 11:18:05;;;;;;;26.88;20.08;;;12.00;99.90;;;;;;5069740;28;20206;-68
2021/11/11 11:20:35;;;;;;;33.20;23.13;;;11.80;99.90;;;;;;5069432;28;20252;-68
2021/11/11 11:23:18;;;;;;;27.35;20.25;;;11.50;99.90;;;;;;5069003;28;20283;-68
2021/11/11 11:26:10;;;;;;;29.65;21.48;;;11.40;99.90;;;;;;5064845;28;20630;-69
2021/11/11 11:28:43;;;;;;;28.45;19.70;;;11.40;99.90;;;;;;5070727;28;20634;-68
2021/11/11 11:31:11;;;;;;;29.52;20.60;;;11.30;99.90;;;;;;5073620;28;20202;-68
2021/11/11 11:33:44;;;;;;;24.77;19.17;;;11.10;99.90;;;;;;5068927;28;20206;-68
2021/11/11 11:36:17;;;;;;;29.02;20.83;;;11.00;99.90;;;;;;5072764;28;20264;-68
2021/11/11 11:38:52;;;;;;;28.33;20.67;;;11.10;99.90;;;;;;5073396;28;20276;-68
2021/11/11 11:41:29;;;;;;;26.53;18.80;;;11.10;99.90;;;;;;5072618;28;20271;-68
2021/11/11 11:44:15;;;;;;;28.70;19.98;;;11.20;99.90;;;;;;5072547;28;20206;-69
2021/11/11 11:46:42;;;;;;;31.80;22.63;;;11.30;99.90;;;;;;5072847;28;20654;-68
2021/11/11 11:49:09;;;;;;;25.10;18.25;;;11.30;99.90;;;;;;5073318;28;20691;-68
2021/11/11 11:51:38;;;;;;;28.40;19.97;;;11.30;99.90;;;;;;5073198;28;20214;-67
2021/11/11 11:54:11;;;;;;;27.23;19.90;;;11.20;99.90;;;;;;5073352;28;20674;-68
2021/11/11 11:56:44;;;;;;;26.33;18.67;;;11.20;99.90;;;;;;5073076;28;20708;-67
2021/11/11 11:59:14;;;;;;;27.33;19.57;;;11.00;99.90;;;;;;5063342;28;20198;-67
2021/11/11 12:01:57;;;;;;;33.27;23.07;;;11.00;99.90;;;;;;5072905;28;20275;-68
2021/11/11 12:04:39;;;;;;;53.77;29.70;;;11.40;99.90;;;;;;5053036;28;20253;-67
2021/11/11 12:07:19;;;;;;;32.23;21.30;;;11.60;99.90;;;;;;5069084;28;20267;-68
2021/11/11 12:09:51;;;;;;;63.13;31.93;;;11.30;99.90;;;;;;5066765;28;20241;-68
2021/11/11 12:12:48;;;;;;;29.30;20.30;;;11.20;99.90;;;;;;5072257;28;20206;-68
2021/11/11 12:15:28;;;;;;;28.53;19.87;;;11.30;99.90;;;;;;5070378;28;20556;-68
2021/11/11 12:29:42;;;;;;;31.88;22.90;;;12.00;99.90;;;;;;5072555;28;20255;-68
2021/11/11 12:40:25;;;;;;;32.92;22.08;;;12.30;99.90;;;;;;5061491;28;20210;-69
2021/11/11 12:42:55;;;;;;;28.10;20.42;;;12.60;99.90;;;;;;5071586;28;20229;-68
2021/11/11 12:45:25;;;;;;;26.88;20.65;;;12.90;99.90;;;;;;5071928;28;20297;-68
2021/11/11 12:47:54;;;;;;;28.05;20.60;;;12.90;99.90;;;;;;5072075;28;20269;-70
2021/11/11 12:50:41;;;;;;;30.77;22.65;;;12.70;99.90;;;;;;5061397;28;20210;-68
2021/11/11 12:53:34;;;;;;;32.50;24.05;;;12.70;99.90;;;;;;5071977;28;20350;-68
2021/11/11 12:56:25;;;;;;;31.17;24.40;;;12.60;99.90;;;;;;5071818;28;20456;-68
2021/11/11 12:58:58;;;;;;;36.08;24.20;;;12.20;99.90;;;;;;5059850;28;20578;-68
2021/11/11 13:01:28;;;;;;;29.65;23.15;;;12.00;99.90;;;;;;5070409;28;20206;-68
2021/11/11 13:03:58;;;;;;;30.85;23.00;;;12.50;99.90;;;;;;5059435;28;20235;-68
2021/11/11 13:06:38;;;;;;;30.65;22.15;;;12.80;99.90;;;;;;5059211;28;20207;-69
2021/11/11 13:09:11;;;;;;;31.83;21.95;;;13.10;99.90;;;;;;5058302;28;20233;-69
2021/11/11 13:11:42;;;;;;;36.63;26.10;;;13.20;99.90;;;;;;5060589;28;20304;-70
2021/11/11 13:14:14;;;;;;;30.25;23.48;;;13.40;99.90;;;;;;5056345;28;20232;-69
2021/11/11 13:16:42;;;;;;;37.00;25.23;;;13.10;99.90;;;;;;5056530;28;20234;-70
2021/11/11 13:21:58;;;;;;;38.53;26.23;;;13.40;99.90;;;;;;5450554;22;20246;-67
2021/11/11 13:24:36;;;;;;;31.55;23.88;;;13.30;99.90;;;;;;5050756;28;20303;-68
2021/11/11 13:27:55;;;;;;;34.92;24.67;;;13.50;99.90;;;;;;5065950;28;20278;-68
2021/11/11 13:59:30;;;;;;;27.13;21.75;;;13.20;99.90;;;;;;5045616;28;20213;-67
2021/11/11 15:16:36;;;;;;;28.80;21.73;;;12.20;99.90;;;;;;5069609;28;20252;-67
2021/11/11 15:19:36;;;;;;;30.08;23.40;;;12.20;99.90;;;;;;5057704;28;20206;-67